Time;durP1;ratioP1;P1;durP2;ratioP2;P2;SDS_P1;SDS_P2;PMS_P1;PMS_P2;Temp;Humidity;BMP_temperature;BMP_pressure;BME280_temperature;BME280_humidity;BME280_pressure;Samples;Min_cycle;Max_cycle;Signal;HPM_P1;HPM_P2
2021/01/11 00:12:02;;;;;;;4.38;2.90;;;;;;;16.48;55.68;102143.13;6297186;22;20018;-78
2021/01/11 00:14:40;;;;;;;4.05;2.90;;;;;;;16.48;55.68;102139.66;6267719;22;20203;-78
2021/01/11 00:20:31;;;;;;;6.78;3.35;;;;;;;16.48;55.50;102127.53;6321582;22;20026;-78
2021/01/11 00:22:58;;;;;;;4.50;2.92;;;;;;;16.47;55.38;102132.75;6292337;22;20011;-78
2021/01/11 00:31:03;;;;;;;5.53;2.95;;;;;;;16.46;55.21;102129.25;6317141;22;20023;-76
2021/01/11 00:33:30;;;;;;;5.22;3.10;;;;;;;16.47;55.45;102124.94;6297090;22;20083;-76
2021/01/11 00:36:21;;;;;;;5.80;3.08;;;;;;;16.49;55.24;102131.03;6282328;22;20007;-79
2021/01/11 00:57:55;;;;;;;3.25;2.45;;;;;;;16.47;54.82;102104.16;6311119;22;20127;-76
2021/01/11 01:00:54;;;;;;;4.70;2.65;;;;;;;16.49;54.92;102094.66;6239430;22;20106;-75
2021/01/11 01:14:39;;;;;;;4.22;2.50;;;;;;;16.48;55.38;102103.28;6325181;22;20023;-77
2021/01/11 01:17:07;;;;;;;3.70;2.50;;;;;;;16.47;54.77;102099.81;6313597;22;20029;-77
2021/01/11 01:26:05;;;;;;;3.65;2.60;;;;;;;16.47;54.72;102080.78;6275480;22;20022;-76
2021/01/11 01:35:04;;;;;;;4.78;2.50;;;;;;;16.47;54.52;102065.19;6298383;22;20042;-77
2021/01/11 02:10:01;;;;;;;2.67;2.08;;;;;;;16.47;54.61;102067.78;6325076;22;20023;-77
2021/01/11 02:31:44;;;;;;;3.88;2.25;;;;;;;16.43;54.15;102066.84;6334607;22;20525;-80
2021/01/11 02:44:26;;;;;;;3.25;1.90;;;;;;;16.45;53.93;102062.56;6292607;22;20028;-80
2021/01/11 02:50:19;;;;;;;4.18;2.08;;;;;;;16.46;53.91;102053.88;6319167;22;20018;-80
2021/01/11 02:56:11;;;;;;;3.38;2.20;;;;;;;16.47;53.91;102055.66;6305213;22;20023;-80
2021/01/11 03:33:54;;;;;;;1.65;1.40;;;;;;;16.47;53.28;102036.59;6300783;22;20026;-77
2021/01/11 03:36:22;;;;;;;2.28;1.60;;;;;;;16.47;53.19;102026.22;6264002;22;20016;-77
2021/01/11 03:39:02;;;;;;;2.28;1.58;;;;;;;16.46;53.16;102020.13;6238843;22;20038;-77
2021/01/11 03:41:31;;;;;;;2.08;1.45;;;;;;;16.43;54.63;102022.69;6243176;22;20007;-79
2021/01/11 03:46:46;;;;;;;1.95;1.40;;;;;;;16.44;53.31;102014.91;6347787;22;20048;-79
2021/01/11 03:49:44;;;;;;;2.90;1.67;;;;;;;16.46;53.44;102014.91;6330895;22;20011;-77
2021/01/11 03:52:26;;;;;;;2.58;1.63;;;;;;;16.45;53.30;102013.19;6273307;22;20019;-77
2021/01/11 04:03:26;;;;;;;2.67;1.40;;;;;;;16.45;53.08;101984.59;6300444;22;20050;-75
2021/01/11 04:05:54;;;;;;;2.10;1.60;;;;;;;16.47;53.09;101976.84;6269731;22;20111;-76
2021/01/11 04:13:52;;;;;;;2.03;1.42;;;;;;;16.44;52.89;101964.69;6310323;22;20445;-80
2021/01/11 04:16:26;;;;;;;1.92;1.50;;;;;;;16.44;53.50;101962.97;6258376;22;20012;-76
2021/01/11 04:18:55;;;;;;;2.30;1.40;;;;;;;16.46;53.12;101960.34;6227209;23;20012;-76
2021/01/11 04:25:03;;;;;;;2.97;1.30;;;;;;;16.49;53.47;101950.03;6226897;23;20154;-77
2021/01/11 04:27:38;;;;;;;2.67;1.50;;;;;;;16.51;53.04;101952.66;6172531;23;20036;-78
2021/01/11 04:30:12;;;;;;;1.88;1.48;;;;;;;16.52;53.15;101960.44;6211018;23;20004;-78
2021/01/11 04:32:42;;;;;;;2.00;1.40;;;;;;;16.51;53.26;101953.50;6248609;22;20018;-78
2021/01/11 05:51:38;;;;;;;2.10;1.02;;;;;;;16.66;53.15;101899.13;6292155;22;20022;-76
2021/01/11 06:08:33;;;;;;;1.95;1.13;;;;;;;16.70;53.54;101853.25;6246507;22;20109;31
2021/01/11 06:18:09;;;;;;;10.07;3.15;;;;;;;16.73;53.69;101839.41;6284102;22;20054;31
2021/01/11 15:54:16;;;;;;;2.50;1.13;;;;;;;17.32;48.94;101357.81;6324621;22;20030;31
2021/01/11 15:56:48;;;;;;;1.85;0.90;;;;;;;17.31;48.88;101363.00;6302865;22;20035;-79
2021/01/11 15:59:18;;;;;;;2.22;0.90;;;;;;;17.30;48.95;101350.88;6312971;22;20019;-78
2021/01/11 16:01:47;;;;;;;4.15;0.73;;;;;;;17.29;48.97;101350.03;6277196;22;20007;-78
2021/01/11 16:04:12;;;;;;;4.30;1.02;;;;;;;17.38;48.55;101356.97;6241446;22;20014;-78
2021/01/11 16:06:45;;;;;;;3.53;0.88;;;;;;;17.40;48.65;101347.41;6291355;22;20007;-77
2021/01/11 16:09:13;;;;;;;2.70;0.77;;;;;;;17.40;48.63;101350.03;6320546;22;20026;-78
2021/01/11 16:11:49;;;;;;;2.03;0.90;;;;;;;17.37;48.77;101343.06;6270188;22;20051;-78
2021/01/11 16:14:15;;;;;;;2.00;1.00;;;;;;;17.37;48.82;101330.03;6317228;22;20003;-78
2021/01/11 16:16:50;;;;;;;3.53;1.10;;;;;;;17.40;48.83;101321.41;6298550;22;20010;-77
2021/01/11 16:19:19;;;;;;;1.83;0.80;;;;;;;17.43;48.86;101309.22;6289715;22;20003;-79
2021/01/11 16:21:49;;;;;;;2.15;1.00;;;;;;;17.40;49.02;101306.66;6285499;22;20351;-77
2021/01/11 16:24:15;;;;;;;2.08;1.02;;;;;;;17.40;48.81;101321.41;6265044;22;20007;-79
2021/01/11 16:26:40;;;;;;;2.92;0.70;;;;;;;17.38;49.04;101308.38;6216894;22;20018;-78
2021/01/11 16:29:13;;;;;;;2.17;1.00;;;;;;;17.38;48.92;101297.97;6234490;22;20007;-78
2021/01/11 16:31:39;;;;;;;1.50;0.60;;;;;;;17.37;48.90;101288.44;6290841;22;20057;-78
2021/01/11 16:34:05;;;;;;;2.83;1.05;;;;;;;17.34;48.93;101291.03;6252756;22;20023;-78
2021/01/11 16:36:30;;;;;;;2.13;1.08;;;;;;;17.36;48.67;101291.91;6294828;22;20146;-78
2021/01/11 16:38:56;;;;;;;2.40;0.98;;;;;;;17.36;48.60;101280.66;6243886;22;20337;-79
2021/01/11 16:41:23;;;;;;;5.20;0.85;;;;;;;17.38;48.72;101273.72;6249095;22;20017;-78
2021/01/11 16:43:49;;;;;;;3.88;0.95;;;;;;;17.39;48.74;101258.06;6301438;22;20067;-78
2021/01/11 16:46:18;;;;;;;3.03;1.02;;;;;;;17.39;49.08;101259.81;6298599;22;20011;-78
2021/01/11 16:48:43;;;;;;;2.13;0.85;;;;;;;17.39;49.09;101262.41;6297644;22;20003;-78
2021/01/11 16:51:11;;;;;;;3.45;0.90;;;;;;;17.40;49.08;101272.81;6271278;22;20036;-78
2021/01/11 16:53:56;;;;;;;7.00;1.00;;;;;;;17.40;49.08;101278.03;6324060;22;20433;-78
2021/01/11 16:56:23;;;;;;;5.25;0.80;;;;;;;17.39;49.04;101276.28;6327850;22;19999;-77
2021/01/11 16:58:54;;;;;;;3.13;0.90;;;;;;;17.39;48.95;101278.03;6304704;22;20007;-77
2021/01/11 17:01:30;;;;;;;3.65;0.85;;;;;;;17.41;48.84;101276.28;6330485;22;20007;-78
2021/01/11 17:03:56;;;;;;;3.13;0.80;;;;;;;17.40;48.85;101262.41;6331693;22;20017;-78
2021/01/11 17:06:22;;;;;;;1.98;0.90;;;;;;;17.39;49.20;101252.00;6329075;22;20004;-78
2021/01/11 17:08:50;;;;;;;2.53;0.90;;;;;;;17.39;49.04;101242.47;6329158;22;20426;-78
2021/01/11 17:11:24;;;;;;;1.80;0.95;;;;;;;17.39;48.79;101245.06;6302160;22;20013;-79
2021/01/11 17:13:50;;;;;;;4.03;0.82;;;;;;;17.41;48.99;101252.88;6270829;22;20011;-78
2021/01/11 17:16:20;;;;;;;2.15;0.82;;;;;;;17.41;49.01;101247.66;6270997;22;20025;-77
2021/01/11 17:18:46;;;;;;;1.90;0.90;;;;;;;17.41;48.96;101248.53;6271049;22;20067;-77
2021/01/11 17:21:11;;;;;;;2.63;1.10;;;;;;;17.41;48.96;101247.66;6269881;22;20042;-78
2021/01/11 17:23:37;;;;;;;1.50;0.80;;;;;;;17.41;49.07;101248.53;6270068;22;20007;-77
2021/01/11 17:26:03;;;;;;;2.67;0.90;;;;;;;17.40;48.86;101239.00;6243891;22;20022;-78
2021/01/11 17:28:28;;;;;;;1.35;0.70;;;;;;;17.40;48.94;101231.19;6298404;22;20326;-79
2021/01/11 17:30:55;;;;;;;1.48;0.82;;;;;;;17.41;49.09;101230.31;6271691;22;20027;-78
2021/01/11 17:33:21;;;;;;;2.75;0.80;;;;;;;17.41;48.77;101227.72;6295940;22;20000;-78
2021/01/11 17:35:47;;;;;;;1.77;0.90;;;;;;;17.42;48.99;101221.66;6246864;22;20006;-77
2021/01/11 17:38:12;;;;;;;1.63;0.70;;;;;;;17.42;48.72;101218.16;6299391;22;20003;-77
2021/01/11 17:40:38;;;;;;;0.98;0.77;;;;;;;17.42;48.94;101219.06;6269463;22;20004;-77
2021/01/11 17:43:03;;;;;;;1.95;1.00;;;;;;;17.42;49.11;101216.47;6296381;22;20011;-78
2021/01/11 17:45:28;;;;;;;1.33;0.70;;;;;;;17.43;48.88;101214.72;6297356;22;20003;-77
2021/01/11 17:47:54;;;;;;;2.00;0.90;;;;;;;17.43;48.90;101207.75;6277585;22;20067;-78
2021/01/11 17:50:19;;;;;;;2.33;1.40;;;;;;;17.42;48.72;101213.84;6302954;22;20011;-80
2021/01/11 17:52:44;;;;;;;1.63;0.80;;;;;;;17.43;48.92;101205.16;6300568;22;20027;-81
2021/01/11 17:55:11;;;;;;;5.13;1.05;;;;;;;17.44;48.89;101201.72;6300655;22;20015;-77
2021/01/11 17:57:36;;;;;;;2.35;0.80;;;;;;;17.41;49.05;101212.09;6272576;22;20004;-77
2021/01/11 18:00:11;;;;;;;1.85;0.90;;;;;;;17.39;49.20;101215.59;6222424;22;20004;-77
2021/01/11 18:02:37;;;;;;;2.33;1.00;;;;;;;17.34;49.24;101213.00;6298572;22;20011;-79
2021/01/11 18:05:03;;;;;;;3.67;0.90;;;;;;;17.31;49.41;101214.72;6247732;22;20003;-78
2021/01/11 18:07:28;;;;;;;3.15;1.10;;;;;;;17.27;49.86;101216.50;6244520;22;20438;-78
2021/01/11 18:09:53;;;;;;;4.78;1.40;;;;;;;17.25;49.63;101211.28;6244420;22;20030;-78
2021/01/11 18:12:19;;;;;;;4.93;1.60;;;;;;;17.26;49.87;101219.94;6269255;22;20038;-78
2021/01/11 18:14:44;;;;;;;7.22;2.20;;;;;;;17.30;50.43;101218.22;6267413;22;20018;-80
2021/01/11 18:17:09;;;;;;;11.70;2.47;;;;;;;17.32;50.25;101209.53;6262733;22;20004;-78
2021/01/11 18:19:35;;;;;;;7.70;2.25;;;;;;;17.33;50.65;101202.59;6270982;22;20027;-78
2021/01/11 18:22:00;;;;;;;9.55;2.47;;;;;;;17.30;51.00;101198.28;6244547;22;20020;-81
2021/01/11 18:24:26;;;;;;;8.05;2.65;;;;;;;17.30;50.82;101205.22;6295847;22;20431;-85
2021/01/11 18:26:51;;;;;;;8.25;2.53;;;;;;;17.30;51.16;101190.47;6268617;22;20023;-82
2021/01/11 18:29:17;;;;;;;9.77;2.63;;;;;;;17.28;51.17;101195.66;6273288;22;20090;-82
2021/01/11 18:31:46;;;;;;;7.55;2.83;;;;;;;17.29;51.21;101175.75;6274691;22;19996;-82
2021/01/11 18:34:11;;;;;;;10.50;2.80;;;;;;;17.30;51.14;101171.41;6272345;22;20038;-81
2021/01/11 18:36:37;;;;;;;6.95;2.70;;;;;;;17.28;51.18;101179.19;6249531;22;20004;-82
2021/01/11 18:39:03;;;;;;;5.93;2.60;;;;;;;17.29;51.47;101173.16;6229870;22;20021;-81
2021/01/11 18:41:36;;;;;;;8.48;2.22;;;;;;;17.29;51.18;101180.94;6213439;23;19997;-81
2021/01/11 18:44:02;;;;;;;12.73;3.20;;;;;;;17.28;51.47;101174.84;6216427;23;20005;-81
2021/01/11 18:46:27;;;;;;;5.75;2.30;;;;;;;17.30;51.31;101161.00;6236862;23;20024;-82
2021/01/11 18:48:53;;;;;;;5.65;2.50;;;;;;;17.30;51.17;101163.59;6211843;23;19989;-82
2021/01/11 18:51:21;;;;;;;5.82;2.30;;;;;;;17.28;51.51;101166.19;6213968;23;19993;-82
2021/01/11 18:53:47;;;;;;;6.65;2.38;;;;;;;17.27;51.56;101154.94;6236999;23;20004;-81
2021/01/11 18:56:12;;;;;;;7.00;2.20;;;;;;;17.31;51.79;101165.31;6187946;23;20011;-81
2021/01/11 18:58:38;;;;;;;6.53;2.40;;;;;;;17.28;51.55;101142.78;6270767;22;20023;-81
2021/01/11 19:01:04;;;;;;;8.38;2.38;;;;;;;17.27;51.40;101154.94;6300227;22;20015;-81
2021/01/11 19:03:29;;;;;;;6.80;2.47;;;;;;;17.29;51.79;101157.53;6276997;22;20010;-81
2021/01/11 19:05:55;;;;;;;5.03;2.08;;;;;;;17.31;51.93;101147.09;6304188;22;20038;-82
2021/01/11 19:08:20;;;;;;;7.00;2.15;;;;;;;17.28;51.75;101155.78;6304886;22;20003;-81
2021/01/11 19:10:45;;;;;;;6.90;2.10;;;;;;;17.28;51.48;101154.03;6328269;22;20003;-81
2021/01/11 19:13:11;;;;;;;5.13;2.17;;;;;;;17.30;51.92;101141.03;6300736;22;20011;-81
2021/01/11 19:15:37;;;;;;;7.05;2.22;;;;;;;17.27;51.72;101125.47;6298303;22;20067;-83
2021/01/11 19:18:03;;;;;;;5.40;2.17;;;;;;;17.29;51.69;101139.31;6298319;22;19999;-82
2021/01/11 19:20:28;;;;;;;5.72;2.00;;;;;;;17.29;51.70;101136.72;6305366;22;20011;-83
2021/01/11 19:22:54;;;;;;;3.60;1.92;;;;;;;17.30;51.78;101133.25;6279217;22;20452;-82
2021/01/11 19:25:20;;;;;;;5.75;2.00;;;;;;;17.31;51.40;101129.78;6322533;22;20094;-81
2021/01/11 19:27:48;;;;;;;5.50;1.90;;;;;;;17.29;51.54;101115.91;6323953;22;20000;-81
2021/01/11 19:30:16;;;;;;;5.53;2.08;;;;;;;17.28;51.59;101102.03;6268895;22;20330;-81
2021/01/11 19:32:42;;;;;;;6.13;2.10;;;;;;;17.29;51.73;101102.91;6298719;22;20025;-81
2021/01/11 19:35:08;;;;;;;5.35;2.17;;;;;;;17.28;51.92;101102.03;6265955;22;19999;-81
2021/01/11 19:37:33;;;;;;;5.82;2.00;;;;;;;17.29;51.99;101105.50;6292358;22;20023;-81
2021/01/11 19:39:59;;;;;;;3.03;1.60;;;;;;;17.32;51.77;101096.81;6317061;22;20040;-82
2021/01/11 19:42:25;;;;;;;4.43;1.88;;;;;;;17.32;51.92;101089.88;6289000;22;20011;-81
2021/01/11 19:44:50;;;;;;;5.55;1.90;;;;;;;17.32;51.92;101082.06;6238423;22;20083;-82
2021/01/11 19:47:19;;;;;;;5.70;1.85;;;;;;;17.34;51.83;101079.47;6289088;22;20326;-81
2021/01/11 19:49:44;;;;;;;4.32;1.83;;;;;;;17.33;51.93;101082.94;6287452;22;20011;-81
2021/01/11 19:52:10;;;;;;;4.93;1.67;;;;;;;17.33;51.77;101077.72;6289781;22;20315;-81
2021/01/11 19:54:41;;;;;;;4.57;1.90;;;;;;;17.32;52.17;101086.41;6290304;22;19999;-81
2021/01/11 19:57:07;;;;;;;3.72;1.75;;;;;;;17.35;51.99;101078.59;6292802;22;19999;-81
2021/01/11 19:59:33;;;;;;;5.18;1.80;;;;;;;17.34;52.12;101074.28;6311512;22;20015;-77
2021/01/11 20:01:58;;;;;;;8.52;2.00;;;;;;;17.36;52.18;101070.78;6284710;22;20437;-78
2021/01/11 20:04:24;;;;;;;4.65;1.60;;;;;;;17.37;51.85;101077.72;6314922;22;20006;-80
2021/01/11 20:06:53;;;;;;;3.85;1.48;;;;;;;17.36;52.09;101073.38;6290252;22;20375;-78
2021/01/11 20:09:20;;;;;;;5.53;1.70;;;;;;;17.37;52.06;101062.09;6315657;22;19999;-77
2021/01/11 20:11:45;;;;;;;6.88;1.70;;;;;;;17.37;52.05;101061.25;6313327;22;20003;-78
2021/01/11 20:14:11;;;;;;;8.00;1.90;;;;;;;17.37;51.97;101062.09;6290166;22;20494;-79
2021/01/11 20:16:36;;;;;;;2.78;1.30;;;;;;;17.37;52.01;101064.69;6263957;22;20015;-78
2021/01/11 20:19:09;;;;;;;3.53;1.70;;;;;;;17.37;52.05;101050.84;6315047;22;20006;-78
2021/01/11 20:21:43;;;;;;;3.87;1.37;;;;;;;17.36;52.11;101055.19;6288352;22;20025;-78
2021/01/11 20:24:16;;;;;;;2.78;1.35;;;;;;;17.37;51.97;101050.84;6289144;22;20086;-80
2021/01/11 20:26:44;;;;;;;5.35;1.80;;;;;;;17.37;51.89;101040.44;6235442;22;20012;-80
2021/01/11 20:29:10;;;;;;;3.42;1.30;;;;;;;17.38;51.89;101039.56;6256177;22;20008;-78
2021/01/11 20:31:37;;;;;;;3.85;1.60;;;;;;;17.38;51.90;101035.22;6281868;22;20333;-79
2021/01/11 20:34:06;;;;;;;3.80;1.60;;;;;;;17.39;51.84;101042.16;6279744;22;20442;-78
2021/01/11 20:36:31;;;;;;;3.22;1.48;;;;;;;17.39;52.01;101036.94;6253997;22;20008;-77
2021/01/11 20:38:57;;;;;;;3.72;1.90;;;;;;;17.40;52.12;101032.63;6281857;22;20081;-78
2021/01/11 20:41:22;;;;;;;3.03;1.52;;;;;;;17.40;52.00;101032.63;6284905;22;20003;-78
2021/01/11 20:43:52;;;;;;;3.63;1.30;;;;;;;17.39;52.04;101025.69;6233275;22;20070;-80
2021/01/11 20:46:18;;;;;;;4.13;1.60;;;;;;;17.39;51.96;101025.69;6259105;22;20030;-79
2021/01/11 20:48:45;;;;;;;3.65;1.45;;;;;;;17.38;52.02;101014.41;6208947;22;20011;-80
2021/01/11 20:51:10;;;;;;;2.50;1.40;;;;;;;17.39;52.08;101010.94;6254387;22;20091;-78
2021/01/11 20:53:36;;;;;;;3.03;1.65;;;;;;;17.39;52.03;101010.94;6228288;22;20062;-78
2021/01/11 20:56:02;;;;;;;2.55;1.30;;;;;;;17.40;51.76;101004.88;6253907;22;20004;-78
2021/01/11 20:58:27;;;;;;;2.50;1.20;;;;;;;17.40;51.79;101004.00;6230938;22;20090;-81
2021/01/11 21:00:54;;;;;;;2.67;1.30;;;;;;;17.40;51.87;100997.06;6281401;22;20010;-79
2021/01/11 21:03:19;;;;;;;2.72;1.25;;;;;;;17.40;52.12;100986.66;6233587;22;20012;-80
2021/01/11 21:05:45;;;;;;;3.97;1.77;;;;;;;17.41;51.87;100987.50;6207899;22;20014;-80
2021/01/11 21:08:10;;;;;;;2.47;1.27;;;;;;;17.41;51.94;100980.56;6235576;22;20338;-81
2021/01/11 21:10:36;;;;;;;3.15;1.40;;;;;;;17.42;51.95;100971.03;6257701;22;20016;-78
2021/01/11 21:13:02;;;;;;;3.47;1.58;;;;;;;17.41;51.82;100972.75;6251131;22;20338;-78
2021/01/11 21:15:27;;;;;;;2.97;1.40;;;;;;;17.40;51.98;100968.44;6251394;22;20346;-78
2021/01/11 21:17:53;;;;;;;2.47;1.30;;;;;;;17.39;52.09;100969.31;6253989;22;20011;-80
2021/01/11 21:20:18;;;;;;;3.88;1.45;;;;;;;17.40;52.17;100970.19;6251830;22;20090;-79
2021/01/11 21:22:44;;;;;;;3.22;1.45;;;;;;;17.38;51.96;100967.59;6251471;22;20034;-78
2021/01/11 21:25:10;;;;;;;2.22;1.17;;;;;;;17.38;52.21;100966.75;6228443;22;20022;-79
2021/01/11 21:27:43;;;;;;;3.63;1.40;;;;;;;17.37;52.03;100967.59;6282306;22;20084;-78
2021/01/11 21:30:09;;;;;;;4.25;1.48;;;;;;;17.35;52.29;100967.59;6254492;22;20134;-78
2021/01/11 21:32:35;;;;;;;4.20;1.33;;;;;;;17.36;52.07;100964.13;6253241;22;20012;-78
2021/01/11 21:35:01;;;;;;;3.63;1.30;;;;;;;17.34;52.13;100960.69;6276260;22;20023;-78
2021/01/11 21:37:26;;;;;;;3.50;1.30;;;;;;;17.35;52.06;100953.72;6250855;22;20004;-77
2021/01/11 21:39:52;;;;;;;4.22;1.50;;;;;;;17.36;52.06;100951.13;6226011;22;20011;-78
2021/01/11 21:42:17;;;;;;;4.55;1.60;;;;;;;17.35;52.28;100935.53;6283367;22;20054;-80
2021/01/11 21:44:43;;;;;;;2.78;1.20;;;;;;;17.35;52.17;100930.31;6287153;22;20004;-80
2021/01/11 21:47:08;;;;;;;2.47;1.42;;;;;;;17.36;52.06;100939.88;6295061;22;20395;-78
2021/01/11 21:49:33;;;;;;;2.17;1.08;;;;;;;17.34;52.20;100934.66;6290492;22;20032;-79
2021/01/11 21:51:59;;;;;;;2.50;1.38;;;;;;;17.34;52.20;100933.81;6267287;22;20071;-80
2021/01/11 21:54:24;;;;;;;3.72;1.65;;;;;;;17.33;52.25;100930.31;6217082;22;20019;-79
2021/01/11 21:56:52;;;;;;;2.45;1.20;;;;;;;17.33;52.09;100932.94;6266957;22;20014;-80
2021/01/11 21:59:18;;;;;;;4.60;1.50;;;;;;;17.34;52.08;100928.63;6296017;22;20079;-79
2021/01/11 22:01:43;;;;;;;3.67;1.30;;;;;;;17.33;52.17;100927.72;6269076;22;20004;-79
2021/01/11 22:04:09;;;;;;;3.58;1.45;;;;;;;17.33;52.34;100926.88;6297996;22;20011;-81
2021/01/11 22:06:34;;;;;;;3.80;1.48;;;;;;;17.33;51.93;100917.31;6271861;22;20004;-81
2021/01/11 22:09:00;;;;;;;3.17;1.40;;;;;;;17.33;52.20;100930.31;6296499;22;20030;-80
2021/01/11 22:11:25;;;;;;;3.38;1.40;;;;;;;17.32;52.10;100928.63;6267542;22;20071;-79
2021/01/11 22:13:50;;;;;;;3.08;1.30;;;;;;;17.32;52.10;100920.81;6244020;22;20003;-79
2021/01/11 22:16:16;;;;;;;3.03;1.35;;;;;;;17.32;52.25;100918.22;6244824;22;20071;-80
2021/01/11 22:18:41;;;;;;;2.97;1.50;;;;;;;17.31;52.00;100913.00;6272138;22;20011;-81
2021/01/11 22:21:07;;;;;;;3.65;1.20;;;;;;;17.31;52.14;100906.09;6244798;22;20034;-82
2021/01/11 22:23:33;;;;;;;3.92;1.30;;;;;;;17.31;52.08;100897.41;6272308;22;20007;-81
2021/01/11 22:25:59;;;;;;;3.13;1.20;;;;;;;17.31;52.07;100900.00;6271486;22;20095;-82
2021/01/11 22:28:25;;;;;;;2.83;1.38;;;;;;;17.31;52.14;100897.41;6271161;22;20342;-80
2021/01/11 22:30:52;;;;;;;2.72;1.30;;;;;;;17.31;52.00;100887.88;6272044;22;20047;-79
2021/01/11 22:33:20;;;;;;;2.58;1.30;;;;;;;17.31;52.03;100887.88;6274666;22;20051;-80
2021/01/11 22:35:46;;;;;;;2.63;1.13;;;;;;;17.32;51.79;100888.75;6275429;22;20034;-84
2021/01/11 22:38:23;;;;;;;2.38;1.27;;;;;;;17.32;51.95;100883.53;6274795;22;20030;-81
2021/01/11 22:40:49;;;;;;;3.67;1.30;;;;;;;17.32;51.96;100884.41;6273528;22;20007;-78
2021/01/11 22:43:15;;;;;;;2.60;1.27;;;;;;;17.33;51.97;100880.03;6275483;22;20003;-80
2021/01/11 22:45:45;;;;;;;3.85;1.40;;;;;;;17.32;51.54;100879.19;6272860;22;20046;-81
2021/01/11 22:48:10;;;;;;;3.38;1.30;;;;;;;17.32;52.06;100876.59;6250328;22;20431;-78
2021/01/11 22:50:36;;;;;;;4.15;1.60;;;;;;;17.34;52.01;100871.38;6248716;22;20030;-78
2021/01/11 22:53:02;;;;;;;5.22;1.58;;;;;;;17.33;52.12;100872.25;6299675;22;20015;-79
2021/01/11 22:55:33;;;;;;;3.08;1.25;;;;;;;17.32;51.92;100860.97;6273718;22;20003;-80
2021/01/11 22:57:59;;;;;;;2.67;1.30;;;;;;;17.32;52.09;100853.19;6271787;22;20003;-78
2021/01/11 23:00:25;;;;;;;3.55;1.40;;;;;;;17.32;52.01;100852.31;6255933;22;20067;-78
2021/01/11 23:02:50;;;;;;;4.28;1.40;;;;;;;17.33;52.07;100854.03;6281186;22;20013;-78
2021/01/11 23:05:16;;;;;;;5.05;1.83;;;;;;;17.32;52.07;100841.91;6281488;22;19999;-77
2021/01/11 23:07:45;;;;;;;7.05;1.58;;;;;;;17.30;52.23;100844.53;6256581;22;20053;-78
2021/01/11 23:10:13;;;;;;;2.92;1.55;;;;;;;17.30;51.91;100841.94;6254067;22;20010;-80
2021/01/11 23:12:39;;;;;;;3.78;1.40;;;;;;;17.31;51.91;100838.47;6253944;22;20000;-77
2021/01/11 23:15:12;;;;;;;3.33;1.45;;;;;;;17.30;51.96;100836.72;6253854;22;20008;-77
2021/01/11 23:17:45;;;;;;;2.70;1.17;;;;;;;17.30;52.04;100833.25;6229021;22;20099;-79
2021/01/11 23:20:16;;;;;;;6.30;1.60;;;;;;;17.29;51.99;100829.81;6280169;22;19999;-78
2021/01/11 23:22:43;;;;;;;4.00;1.40;;;;;;;17.30;51.87;100822.88;6252136;22;20510;-78
2021/01/11 23:25:28;;;;;;;4.28;1.40;;;;;;;17.31;51.85;100814.16;6288449;22;20079;-78
2021/01/11 23:27:54;;;;;;;3.75;1.42;;;;;;;17.28;52.01;100813.31;6296824;22;20067;-79
2021/01/11 23:30:20;;;;;;;6.63;1.65;;;;;;;17.29;51.94;100803.81;6295150;22;20034;-77
2021/01/11 23:32:46;;;;;;;2.55;1.30;;;;;;;17.27;51.74;100809.00;6319455;22;20003;-78
2021/01/11 23:35:18;;;;;;;4.45;1.88;;;;;;;17.28;51.77;100800.31;6293113;22;20007;-79
2021/01/11 23:37:44;;;;;;;3.40;1.40;;;;;;;17.28;51.78;100794.25;6320828;22;20000;-78
2021/01/11 23:40:10;;;;;;;5.85;1.92;;;;;;;17.28;51.78;100791.66;6270927;22;20007;-81
2021/01/11 23:42:36;;;;;;;2.92;1.40;;;;;;;17.28;51.73;100787.31;6325069;22;20004;-78
2021/01/11 23:45:06;;;;;;;3.92;1.50;;;;;;;17.28;51.78;100792.50;6271665;22;20010;-81
2021/01/11 23:47:31;;;;;;;3.70;1.55;;;;;;;17.27;51.56;100788.19;6296948;22;19999;-78
2021/01/11 23:49:58;;;;;;;4.00;1.50;;;;;;;17.27;51.59;100787.34;6327406;22;20010;-81
2021/01/11 23:52:23;;;;;;;3.20;1.40;;;;;;;17.27;51.74;100776.94;6296623;22;20430;-80
2021/01/11 23:54:48;;;;;;;4.18;1.30;;;;;;;17.26;52.17;100768.25;6271892;22;20015;-81
2021/01/11 23:57:23;;;;;;;3.50;1.40;;;;;;;17.26;51.57;100763.06;6274298;22;20003;-78
2021/01/11 23:59:48;;;;;;;3.92;1.40;;;;;;;17.27;51.86;100764.78;6296123;22;20015;-80
